createdAt,value
2018-07-09T00:01:39.392Z,9.97
2018-07-09T01:26:06.664Z,12.30
2018-07-09T01:28:35.484Z,12.10
2018-07-09T01:31:04.304Z,11.60
2018-07-09T01:33:33.015Z,12.00
2018-07-09T01:36:01.718Z,13.13
2018-07-09T01:38:30.457Z,13.00
2018-07-09T01:40:59.156Z,11.47
2018-07-09T01:43:27.907Z,11.50
2018-07-09T01:45:56.600Z,12.67
2018-07-09T01:48:25.289Z,11.57
2018-07-09T01:50:54.065Z,11.47
2018-07-09T01:53:22.797Z,11.00
2018-07-09T01:55:51.521Z,10.87
2018-07-09T01:58:20.205Z,12.67
2018-07-09T02:00:48.894Z,12.77
2018-07-09T02:03:17.660Z,12.30
2018-07-09T02:05:46.379Z,12.30
2018-07-09T02:08:15.100Z,13.13
2018-07-09T02:10:43.817Z,13.20
2018-07-09T02:13:12.526Z,12.50
2018-07-09T02:15:41.253Z,11.20
2018-07-09T02:18:09.972Z,11.93
2018-07-09T02:20:38.827Z,11.23
2018-07-09T02:23:07.553Z,12.57
2018-07-09T02:25:36.288Z,11.50
2018-07-09T02:28:05.026Z,10.93
2018-07-09T02:30:33.805Z,10.93
2018-07-09T02:33:02.512Z,11.00
2018-07-09T02:35:31.197Z,10.97
2018-07-09T02:37:59.939Z,11.87
2018-07-09T02:40:28.678Z,10.90
2018-07-09T02:42:57.406Z,11.47
2018-07-09T02:45:26.121Z,11.60
2018-07-09T02:47:54.869Z,11.20
2018-07-09T02:50:23.629Z,9.93
2018-07-09T02:52:52.349Z,10.33
2018-07-09T02:55:21.066Z,9.80
2018-07-09T02:57:49.759Z,10.00
2018-07-09T03:00:18.570Z,9.13
2018-07-09T03:02:47.397Z,12.50
2018-07-09T03:05:16.147Z,10.50
2018-07-09T03:07:44.852Z,9.43
2018-07-09T03:10:13.590Z,10.60
2018-07-09T03:12:42.301Z,10.80
2018-07-09T03:15:11.018Z,10.80
2018-07-09T03:17:39.692Z,11.97
2018-07-09T03:20:08.404Z,9.83
2018-07-09T03:22:37.145Z,9.27
2018-07-09T03:25:05.885Z,11.97
2018-07-09T03:27:34.582Z,9.80
2018-07-09T03:30:03.308Z,10.93
2018-07-09T03:32:32.021Z,9.43
2018-07-09T03:35:01.845Z,8.83
2018-07-09T03:37:30.583Z,10.10
2018-07-09T03:39:59.301Z,10.10
2018-07-09T03:42:27.999Z,9.23
2018-07-09T03:44:56.706Z,8.80
2018-07-09T03:47:25.415Z,10.53
2018-07-09T03:49:54.154Z,9.30
2018-07-09T03:52:22.909Z,8.87
2018-07-09T03:54:51.650Z,9.40
2018-07-09T03:57:20.439Z,9.20
2018-07-09T03:59:49.189Z,10.00
2018-07-09T04:02:17.985Z,8.60
2018-07-09T04:04:46.621Z,9.50
2018-07-09T04:07:15.343Z,10.60
2018-07-09T04:09:44.053Z,9.00
2018-07-09T04:12:12.749Z,10.33
2018-07-09T04:14:41.574Z,9.30
2018-07-09T04:17:10.245Z,8.70
2018-07-09T04:19:38.979Z,9.93
2018-07-09T04:22:07.708Z,8.83
2018-07-09T04:24:36.443Z,8.40
2018-07-09T04:27:05.274Z,10.50
2018-07-09T04:29:33.988Z,10.50
2018-07-09T04:32:02.669Z,9.10
2018-07-09T04:34:31.356Z,8.60
2018-07-09T04:37:00.035Z,9.70
2018-07-09T04:39:28.766Z,9.57
2018-07-09T04:41:57.520Z,9.20
2018-07-09T04:44:26.785Z,9.30
2018-07-09T04:46:55.536Z,9.80
2018-07-09T04:49:24.285Z,9.13
2018-07-09T04:51:52.973Z,8.77
2018-07-09T04:54:21.667Z,9.80
2018-07-09T04:56:50.352Z,10.57
2018-07-09T04:59:19.016Z,10.97
2018-07-09T05:01:47.780Z,9.70
2018-07-09T05:04:16.465Z,9.93
2018-07-09T05:06:45.152Z,8.93
2018-07-09T05:09:13.868Z,8.80
2018-07-09T05:11:42.587Z,9.07
2018-07-09T05:14:11.289Z,8.93
2018-07-09T05:16:40.021Z,8.60
2018-07-09T05:19:08.742Z,7.97
2018-07-09T05:21:37.466Z,8.47
2018-07-09T05:24:06.920Z,8.03
2018-07-09T05:26:35.704Z,9.90
2018-07-09T05:29:04.099Z,8.67
2018-07-09T05:31:32.853Z,8.63
2018-07-09T05:34:01.558Z,9.80
2018-07-09T05:36:30.306Z,8.70
2018-07-09T05:38:59.282Z,7.57
2018-07-09T05:41:28.787Z,8.00
2018-07-09T05:43:57.573Z,7.67
2018-07-09T05:46:26.303Z,7.43
2018-07-09T05:48:55.132Z,7.63
2018-07-09T05:51:23.816Z,7.63
2018-07-09T05:53:52.604Z,8.93
2018-07-09T05:56:21.346Z,8.57
2018-07-09T05:58:50.119Z,7.93
2018-07-09T06:01:18.824Z,8.40
2018-07-09T06:03:47.614Z,8.50
2018-07-09T06:06:16.320Z,7.30
2018-07-09T06:08:46.081Z,7.27
2018-07-09T06:11:14.935Z,8.10
2018-07-09T06:13:43.701Z,8.77
2018-07-09T06:16:12.594Z,7.33
2018-07-09T06:18:41.496Z,7.50
2018-07-09T06:21:10.241Z,6.83
2018-07-09T06:23:39.101Z,7.17
2018-07-09T06:26:07.900Z,8.20
2018-07-09T06:28:36.681Z,8.00
2018-07-09T06:31:05.460Z,7.83
2018-07-09T06:33:34.224Z,8.03
2018-07-09T06:36:03.031Z,6.93
2018-07-09T06:38:31.745Z,6.83
2018-07-09T06:41:00.508Z,8.00
2018-07-09T06:43:29.211Z,8.03
2018-07-09T06:45:57.941Z,6.70
2018-07-09T06:48:26.686Z,8.27
2018-07-09T06:50:55.381Z,7.53
2018-07-09T06:53:24.127Z,7.40
2018-07-09T06:55:52.822Z,6.80
2018-07-09T06:58:21.602Z,7.53
2018-07-09T07:00:50.357Z,7.10
2018-07-09T07:03:19.077Z,7.87
2018-07-09T07:05:47.775Z,6.80
2018-07-09T07:08:16.481Z,7.70
2018-07-09T07:10:45.223Z,6.83
2018-07-09T07:13:13.949Z,7.50
2018-07-09T07:15:42.732Z,7.70
2018-07-09T07:18:11.412Z,6.70
2018-07-09T07:20:40.117Z,8.03
2018-07-09T07:23:08.885Z,6.77
2018-07-09T07:25:37.208Z,7.80
2018-07-09T07:28:05.915Z,6.67
2018-07-09T07:30:34.680Z,6.50
2018-07-09T07:33:03.361Z,7.17
2018-07-09T07:35:32.180Z,8.70
2018-07-09T07:38:00.928Z,7.30
2018-07-09T07:40:29.695Z,7.53
2018-07-09T07:42:58.476Z,6.97
2018-07-09T07:45:27.227Z,7.43
2018-07-09T07:47:55.915Z,6.03
2018-07-09T07:50:24.817Z,6.23
2018-07-09T07:52:53.444Z,7.00
2018-07-09T07:55:22.125Z,7.80
2018-07-09T07:57:50.959Z,8.57
2018-07-09T08:00:19.708Z,6.93
2018-07-09T08:02:48.546Z,8.60
2018-07-09T08:05:17.234Z,8.10
2018-07-09T08:07:45.993Z,5.90
2018-07-09T08:10:14.727Z,7.17
2018-07-09T08:15:12.189Z,7.33
2018-07-09T08:17:40.973Z,7.43
2018-07-09T08:20:09.660Z,6.70
2018-07-09T08:22:38.390Z,5.50
2018-07-09T08:25:07.265Z,6.70
2018-07-09T08:27:35.861Z,6.30
2018-07-09T08:30:04.704Z,6.77
2018-07-09T08:32:33.444Z,7.67
2018-07-09T08:35:02.149Z,6.80
2018-07-09T08:37:30.852Z,6.10
2018-07-09T08:39:59.589Z,7.17
2018-07-09T08:42:28.308Z,5.93
2018-07-09T08:44:57.088Z,6.23
2018-07-09T08:47:25.794Z,6.70
2018-07-09T08:49:54.525Z,6.23
2018-07-09T08:52:23.308Z,5.43
2018-07-09T08:54:52.039Z,5.33
2018-07-09T08:57:20.741Z,5.60
2018-07-09T08:59:49.449Z,7.60
2018-07-09T09:02:18.153Z,5.93
2018-07-09T09:04:47.084Z,5.80
2018-07-09T09:07:15.465Z,6.60
2018-07-09T09:09:43.779Z,6.37
2018-07-09T09:12:12.441Z,5.83
2018-07-09T09:14:41.180Z,5.50
2018-07-09T09:17:09.908Z,6.17
2018-07-09T09:19:38.616Z,5.97
2018-07-09T09:22:07.369Z,5.37
2018-07-09T09:24:35.843Z,5.40
2018-07-09T09:27:04.537Z,6.10
2018-07-09T09:29:33.253Z,7.73
2018-07-09T09:32:01.987Z,9.20
2018-07-09T09:34:30.677Z,5.33
2018-07-09T09:36:59.420Z,6.00
2018-07-09T09:39:28.663Z,5.43
2018-07-09T09:41:57.999Z,5.80
2018-07-09T09:44:26.714Z,5.60
2018-07-09T09:46:55.462Z,4.57
2018-07-09T09:49:24.168Z,6.30
2018-07-09T09:51:52.984Z,4.83
2018-07-09T09:54:21.864Z,4.30
2018-07-09T09:56:50.905Z,4.83
2018-07-09T09:59:19.645Z,4.47
2018-07-09T10:01:48.376Z,6.13
2018-07-09T10:04:17.105Z,4.73
2018-07-09T10:06:45.815Z,5.47
2018-07-09T10:09:14.525Z,7.13
2018-07-09T10:11:43.201Z,4.13
2018-07-09T10:14:11.920Z,3.23
2018-07-09T10:16:40.630Z,3.80
2018-07-09T10:19:09.376Z,3.70
2018-07-09T10:21:38.093Z,3.40
2018-07-09T10:24:06.856Z,6.33
2018-07-09T10:26:35.577Z,3.00
2018-07-09T10:29:04.338Z,3.00
2018-07-09T10:31:33.017Z,4.00
2018-07-09T10:34:01.700Z,3.70
2018-07-09T10:36:30.416Z,3.63
2018-07-09T10:38:59.180Z,2.80
2018-07-09T10:41:27.844Z,2.80
2018-07-09T10:43:56.566Z,3.77
2018-07-09T10:46:25.249Z,3.20
2018-07-09T10:48:53.915Z,3.30
2018-07-09T10:51:22.649Z,3.17
2018-07-09T10:53:51.301Z,3.77
2018-07-09T10:56:19.965Z,5.07
2018-07-09T10:58:48.772Z,4.13
2018-07-09T11:01:17.550Z,2.73
2018-07-09T11:03:46.310Z,3.10
2018-07-09T11:06:15.045Z,6.43
2018-07-09T11:08:43.686Z,3.97
2018-07-09T11:11:12.385Z,4.70
2018-07-09T11:13:41.157Z,3.90
2018-07-09T11:16:09.880Z,3.10
2018-07-09T11:18:38.557Z,5.20
2018-07-09T11:21:07.365Z,2.93
2018-07-09T11:23:36.109Z,3.67
2018-07-09T11:26:04.804Z,3.00
2018-07-09T11:28:33.545Z,3.90
2018-07-09T11:31:02.256Z,3.20
2018-07-09T11:33:30.950Z,2.23
2018-07-09T11:36:01.008Z,3.27
2018-07-09T11:38:29.748Z,3.17
2018-07-09T11:40:58.517Z,4.80
2018-07-09T11:43:27.378Z,4.10
2018-07-09T11:45:56.113Z,4.30
2018-07-09T11:48:24.792Z,5.07
2018-07-09T11:50:53.523Z,6.67
2018-07-09T11:53:22.229Z,2.60
2018-07-09T11:55:50.929Z,4.17
2018-07-09T11:58:19.601Z,2.80
2018-07-09T12:00:48.335Z,3.33
2018-07-09T12:03:17.025Z,2.70
2018-07-09T12:05:45.752Z,4.80
2018-07-09T12:08:14.452Z,5.60
2018-07-09T12:10:43.166Z,7.90
2018-07-09T12:13:11.881Z,7.03
2018-07-09T12:15:40.569Z,3.33
2018-07-09T12:18:09.309Z,3.80
2018-07-09T12:20:38.007Z,5.13
2018-07-09T12:23:06.656Z,6.03
2018-07-09T12:25:35.352Z,2.10
2018-07-09T12:28:04.154Z,4.57
2018-07-09T12:30:32.848Z,14.73
2018-07-09T12:33:01.560Z,3.07
2018-07-09T12:35:30.236Z,6.03
2018-07-09T12:37:59.048Z,2.23
2018-07-09T12:40:27.787Z,2.60
2018-07-09T12:42:56.484Z,3.83
2018-07-09T12:45:25.138Z,4.40
2018-07-09T12:47:53.824Z,2.97
2018-07-09T12:50:22.932Z,4.20
2018-07-09T12:52:51.613Z,2.10
2018-07-09T12:55:20.310Z,3.93
2018-07-09T12:57:49.126Z,4.33
2018-07-09T13:00:17.821Z,2.83
2018-07-09T13:02:46.556Z,2.20
2018-07-09T13:05:15.318Z,2.80
2018-07-09T13:07:44.028Z,2.27
2018-07-09T13:10:12.741Z,3.53
2018-07-09T13:12:41.447Z,4.73
2018-07-09T13:15:10.164Z,2.70
2018-07-09T13:17:38.848Z,1.90
2018-07-09T13:20:07.557Z,2.67
2018-07-09T13:22:36.220Z,2.00
2018-07-09T13:25:04.997Z,2.43
2018-07-09T13:27:33.777Z,2.60
2018-07-09T13:30:02.553Z,4.60
2018-07-09T13:32:31.321Z,2.30
2018-07-09T13:35:00.115Z,4.20
2018-07-09T13:37:28.788Z,5.43
2018-07-09T13:39:57.574Z,3.63
2018-07-09T13:42:26.289Z,4.67
2018-07-09T13:44:55.109Z,3.43
2018-07-09T13:47:23.832Z,2.50
2018-07-09T13:49:52.641Z,3.13
2018-07-09T13:52:21.416Z,2.40
2018-07-09T13:54:50.168Z,2.70
2018-07-09T13:57:18.960Z,4.13
2018-07-09T13:59:47.676Z,3.47
2018-07-09T14:02:16.324Z,5.33
2018-07-09T14:04:45.048Z,5.53
2018-07-09T14:07:13.794Z,3.90
2018-07-09T14:09:42.495Z,2.90
2018-07-09T14:12:11.262Z,3.57
2018-07-09T14:14:39.944Z,5.20
2018-07-09T14:17:08.662Z,3.80
2018-07-09T14:20:42.665Z,4.40
2018-07-09T14:23:12.726Z,2.77
2018-07-09T14:25:41.992Z,4.60
2018-07-09T14:28:10.858Z,3.10
2018-07-09T14:30:39.688Z,2.40
2018-07-09T14:33:08.658Z,2.37
2018-07-09T14:35:37.659Z,2.53
2018-07-09T14:38:06.387Z,3.30
2018-07-09T14:40:35.196Z,3.90
2018-07-09T14:43:04.148Z,4.87
2018-07-09T14:45:32.869Z,2.83
2018-07-09T14:48:01.643Z,4.30
2018-07-09T14:50:30.396Z,3.40
2018-07-09T14:52:59.273Z,1.90
2018-07-09T14:55:28.025Z,2.10
2018-07-09T14:57:56.818Z,2.20
2018-07-09T15:00:25.651Z,3.63
2018-07-09T15:02:54.412Z,3.60
2018-07-09T15:05:23.105Z,1.60
2018-07-09T15:07:51.845Z,1.97
2018-07-09T15:10:20.558Z,4.67
2018-07-09T15:12:49.219Z,2.20
2018-07-09T15:15:17.944Z,1.90
2018-07-09T15:17:46.742Z,3.00
2018-07-09T15:20:15.433Z,1.20
2018-07-09T15:22:44.114Z,3.20
2018-07-09T15:25:12.908Z,1.43
2018-07-09T15:27:41.758Z,1.43
2018-07-09T15:30:10.585Z,2.70
2018-07-09T15:32:39.362Z,2.37
2018-07-09T15:35:08.062Z,1.70
2018-07-09T15:37:36.837Z,3.10
2018-07-09T15:40:05.600Z,1.40
2018-07-09T15:42:34.368Z,1.70
2018-07-09T15:45:03.117Z,2.77
2018-07-09T15:47:31.790Z,2.43
2018-07-09T15:50:00.460Z,2.73
2018-07-09T15:52:29.160Z,2.80
2018-07-09T15:54:58.445Z,3.03
2018-07-09T15:57:27.123Z,3.60
2018-07-09T15:59:55.854Z,2.90
2018-07-09T16:02:24.594Z,3.70
2018-07-09T16:04:53.263Z,4.70
2018-07-09T16:07:21.968Z,5.17
2018-07-09T16:09:50.837Z,4.80
2018-07-09T16:12:19.534Z,3.10
2018-07-09T16:14:48.220Z,3.80
2018-07-09T16:17:16.924Z,3.23
2018-07-09T16:19:45.612Z,3.20
2018-07-09T16:22:14.577Z,2.40
2018-07-09T16:24:43.355Z,5.17
2018-07-09T16:27:12.087Z,4.07
2018-07-09T16:29:40.805Z,5.47
2018-07-09T16:32:09.538Z,3.10
2018-07-09T16:34:41.271Z,3.63
2018-07-09T16:37:10.150Z,2.60
2018-07-09T16:39:38.846Z,3.87
2018-07-09T16:42:08.532Z,2.13
2018-07-09T16:44:37.234Z,3.00
2018-07-09T16:47:06.045Z,2.23
2018-07-09T16:49:34.677Z,1.97
2018-07-09T16:52:03.621Z,2.53
2018-07-09T16:54:31.980Z,1.77
2018-07-09T16:57:00.737Z,2.20
2018-07-09T16:59:29.493Z,1.77
2018-07-09T17:01:58.804Z,1.63
2018-07-09T17:04:27.564Z,5.20
2018-07-09T17:06:56.361Z,3.50
2018-07-09T17:09:26.127Z,2.07
2018-07-09T17:11:54.856Z,1.97
2018-07-09T17:14:25.309Z,2.60
2018-07-09T17:16:54.011Z,3.13
2018-07-09T17:19:22.841Z,2.10
2018-07-09T17:21:51.593Z,6.07
2018-07-09T17:24:20.694Z,3.80
2018-07-09T17:26:49.162Z,3.07
2018-07-09T17:29:17.852Z,2.37
2018-07-09T17:31:46.624Z,3.33
2018-07-09T17:34:15.408Z,2.00
2018-07-09T17:36:44.273Z,2.00
2018-07-09T17:39:12.987Z,2.73
2018-07-09T17:41:41.702Z,2.60
2018-07-09T17:44:10.443Z,2.00
2018-07-09T17:46:39.304Z,2.90
2018-07-09T17:49:08.106Z,2.97
2018-07-09T17:51:37.217Z,4.20
2018-07-09T17:54:06.017Z,2.73
2018-07-09T17:56:34.908Z,4.60
2018-07-09T17:59:03.697Z,2.23
2018-07-09T18:01:32.549Z,2.30
2018-07-09T18:04:01.302Z,2.27
2018-07-09T18:06:30.213Z,4.43
2018-07-09T18:08:58.988Z,3.93
2018-07-09T18:11:27.763Z,2.37
2018-07-09T18:13:56.515Z,2.00
2018-07-09T18:16:25.251Z,2.03
2018-07-09T18:18:53.911Z,2.50
2018-07-09T18:21:22.686Z,2.27
2018-07-09T18:23:52.191Z,2.70
2018-07-09T18:26:20.898Z,2.63
2018-07-09T18:28:50.147Z,1.93
2018-07-09T18:31:19.158Z,2.27
2018-07-09T18:33:48.075Z,4.07
2018-07-09T18:36:16.827Z,2.60
2018-07-09T18:38:45.647Z,2.67
2018-07-09T18:41:14.305Z,2.40
2018-07-09T18:43:43.227Z,2.67
2018-07-09T18:46:12.097Z,2.60
2018-07-09T18:48:40.848Z,2.77
2018-07-09T18:51:09.642Z,2.50
2018-07-09T18:53:38.484Z,3.07
2018-07-09T18:56:07.263Z,3.43
2018-07-09T18:58:36.099Z,3.33
2018-07-09T19:01:04.843Z,5.70
2018-07-09T19:03:33.544Z,2.80
2018-07-09T19:06:07.314Z,2.77
2018-07-09T19:08:36.049Z,2.93
2018-07-09T19:11:04.754Z,2.83
2018-07-09T19:13:33.570Z,3.37
2018-07-09T19:16:02.348Z,2.93
2018-07-09T19:18:42.270Z,2.60
2018-07-09T19:21:32.449Z,2.63
2018-07-09T19:24:00.418Z,2.60
2018-07-09T19:26:27.871Z,3.27
2018-07-09T19:28:55.310Z,3.60
2018-07-09T19:31:22.769Z,2.97
2018-07-09T19:33:50.210Z,3.73
2018-07-09T19:36:17.704Z,6.73
2018-07-09T19:38:45.175Z,2.60
2018-07-09T19:41:12.724Z,3.10
2018-07-09T19:43:40.240Z,6.10
2018-07-09T19:46:07.719Z,2.73
2018-07-09T19:48:35.971Z,2.97
2018-07-09T19:51:03.418Z,2.97
2018-07-09T19:53:31.092Z,3.50
2018-07-09T19:56:00.723Z,6.70
2018-07-09T19:58:28.164Z,5.60
2018-07-09T20:00:56.477Z,3.50
2018-07-09T20:03:24.149Z,4.90
2018-07-09T20:05:52.640Z,4.93
2018-07-09T20:08:20.117Z,5.47
2018-07-09T20:11:51.364Z,4.13
2018-07-09T20:14:24.321Z,3.07
2018-07-09T20:16:57.115Z,5.27
2018-07-09T20:19:24.844Z,3.57
2018-07-09T20:21:52.505Z,3.70
2018-07-09T20:24:19.962Z,3.23
2018-07-09T20:26:47.416Z,3.53
2018-07-09T20:29:14.841Z,4.33
2018-07-09T20:31:42.291Z,5.90
2018-07-09T20:34:09.854Z,5.33
2018-07-09T20:36:37.285Z,3.70
2018-07-09T20:39:05.856Z,3.27
2018-07-09T20:41:33.364Z,4.50
2018-07-09T20:44:01.200Z,3.93
2018-07-09T20:46:28.639Z,4.70
2018-07-09T20:48:56.373Z,4.60
2018-07-09T20:51:23.836Z,3.77
2018-07-09T20:53:51.288Z,4.00
2018-07-09T20:56:18.988Z,3.87
2018-07-09T20:58:46.465Z,4.97
2018-07-09T21:01:13.894Z,5.60
2018-07-09T21:03:41.444Z,4.47
2018-07-09T21:06:08.937Z,4.53
2018-07-09T21:08:36.367Z,3.73
2018-07-09T21:11:03.824Z,4.53
2018-07-09T21:13:32.275Z,5.00
2018-07-09T21:15:59.896Z,3.90
2018-07-09T21:18:27.344Z,4.47
2018-07-09T21:20:54.780Z,4.03
2018-07-09T21:23:22.234Z,4.23
2018-07-09T21:25:49.710Z,3.60
2018-07-09T21:28:17.148Z,3.53
2018-07-09T21:30:44.572Z,4.13
2018-07-09T21:33:12.033Z,4.03
2018-07-09T21:35:39.485Z,4.87
2018-07-09T21:38:06.945Z,4.90
2018-07-09T21:40:34.426Z,4.47
2018-07-09T21:43:01.864Z,3.83
2018-07-09T21:45:29.305Z,3.97
2018-07-09T21:47:59.211Z,4.60
2018-07-09T21:50:24.235Z,4.53
2018-07-09T21:52:51.663Z,5.83
2018-07-09T21:55:19.120Z,3.77
2018-07-09T21:57:46.545Z,7.60
2018-07-09T22:00:13.974Z,4.63
2018-07-09T22:02:41.463Z,5.40
2018-07-09T22:05:08.887Z,4.50
2018-07-09T22:07:36.554Z,5.03
2018-07-09T22:10:04.024Z,4.40
2018-07-09T22:12:31.465Z,4.57
2018-07-09T22:14:58.899Z,4.77
2018-07-09T22:17:26.660Z,5.43
2018-07-09T22:19:54.093Z,4.53
2018-07-09T22:22:21.544Z,4.43
2018-07-09T22:24:49.034Z,4.70
2018-07-09T22:27:16.484Z,4.50
2018-07-09T22:29:43.924Z,4.90
2018-07-09T22:32:12.628Z,4.47
2018-07-09T22:34:41.559Z,5.07
2018-07-09T22:37:10.237Z,5.13
2018-07-09T22:39:39.009Z,4.63
2018-07-09T22:42:07.678Z,5.03
2018-07-09T22:44:36.362Z,5.13
2018-07-09T22:47:05.087Z,4.43
2018-07-09T22:49:33.811Z,4.37
2018-07-09T22:52:02.465Z,4.60
2018-07-09T22:54:31.244Z,4.77
2018-07-09T22:56:59.905Z,5.03
2018-07-09T22:59:28.593Z,4.53
2018-07-09T23:01:57.305Z,6.10
2018-07-09T23:04:25.955Z,3.73
2018-07-09T23:06:54.605Z,4.27
2018-07-09T23:09:58.363Z,3.97
2018-07-09T23:12:38.194Z,6.47
2018-07-09T23:15:30.413Z,4.43
2018-07-09T23:18:10.697Z,5.17
2018-07-09T23:20:50.600Z,4.20
2018-07-09T23:23:18.025Z,3.13
2018-07-09T23:25:45.469Z,3.50
2018-07-09T23:28:13.213Z,3.83
2018-07-09T23:30:40.644Z,4.40
2018-07-09T23:33:08.063Z,3.20
2018-07-09T23:35:35.533Z,6.27
2018-07-09T23:38:02.987Z,5.07
2018-07-09T23:40:30.421Z,4.13
2018-07-09T23:42:57.897Z,3.30
2018-07-09T23:45:25.320Z,4.30
2018-07-09T23:47:52.757Z,3.40
2018-07-09T23:50:20.225Z,3.03
2018-07-09T23:52:47.666Z,5.10
2018-07-09T23:55:15.116Z,6.03
